Time;durP1;ratioP1;P1;durP2;ratioP2;P2;SDS_P1;SDS_P2;PMS_P1;PMS_P2;Temp;Humidity;BMP_temperature;BMP_pressure;BME280_temperature;BME280_humidity;BME280_pressure;Samples;Min_cycle;Max_cycle;Signal;HPM_P1;HPM_P2
2023/04/14 05:01:50;;;;;;;;;2.00;2.00;;;;;;;;5281992;22;45992;-62
2023/04/14 05:04:16;;;;;;;;;2.00;2.00;;;;;;;;4990074;28;45587;-62
2023/04/14 05:06:42;;;;;;;;;2.67;2.67;;;;;;;;4980175;28;45621;-62
2023/04/14 05:09:07;;;;;;;;;1.33;1.33;;;;;;;;4998214;28;46134;-62
2023/04/14 05:11:33;;;;;;;;;5.00;5.00;;;;;;;;4986606;28;45207;-62
2023/04/14 05:13:58;;;;;;;;;3.33;3.33;;;;;;;;4985901;28;45458;-62
2023/04/14 05:16:24;;;;;;;;;4.00;3.00;;;;;;;;4996692;28;45450;-62
2023/04/14 05:18:49;;;;;;;;;5.00;5.00;;;;;;;;4998652;28;47092;-63
2023/04/14 05:21:15;;;;;;;;;6.00;4.00;;;;;;;;4978717;28;45441;-62
2023/04/14 05:23:42;;;;;;;;;3.00;3.00;;;;;;;;4996087;28;45362;-62
2023/04/14 05:26:07;;;;;;;;;3.33;1.00;;;;;;;;4998366;28;45653;-62
2023/04/14 05:28:33;;;;;;;;;3.00;3.00;;;;;;;;4995816;28;45448;-62
2023/04/14 05:30:58;;;;;;;;;3.33;3.33;;;;;;;;5001246;28;45499;-62
2023/04/14 05:33:23;;;;;;;;;5.67;4.33;;;;;;;;5005160;28;45353;-62
2023/04/14 05:35:51;;;;;;;;;4.00;4.00;;;;;;;;5004948;28;45297;-62
2023/04/14 05:38:17;;;;;;;;;3.00;3.00;;;;;;;;4991655;28;45381;-62
2023/04/14 05:40:43;;;;;;;;;5.67;4.00;;;;;;;;4996688;28;45372;-63
2023/04/14 05:43:08;;;;;;;;;3.00;3.00;;;;;;;;4997582;28;45275;-63
2023/04/14 05:45:33;;;;;;;;;5.33;4.00;;;;;;;;5005252;28;45409;-63
2023/04/14 05:47:58;;;;;;;;;4.67;3.33;;;;;;;;5005302;28;46287;-61
2023/04/14 05:50:23;;;;;;;;;5.67;4.00;;;;;;;;5004062;28;45150;-63
2023/04/14 05:52:49;;;;;;;;;5.00;5.00;;;;;;;;5000009;28;45479;-63
2023/04/14 05:55:14;;;;;;;;;5.33;4.00;;;;;;;;5002254;28;45318;-62
2023/04/14 05:57:40;;;;;;;;;5.00;5.00;;;;;;;;5004989;28;45440;-62
2023/04/14 06:00:06;;;;;;;;;5.00;5.00;;;;;;;;4988927;28;45429;-64
2023/04/14 06:02:31;;;;;;;;;5.00;5.00;;;;;;;;4996083;28;45464;-65
2023/04/14 06:04:58;;;;;;;;;7.67;5.67;;;;;;;;4988946;28;45330;-64
2023/04/14 06:07:23;;;;;;;;;5.67;5.00;;;;;;;;5003562;28;46507;-62
2023/04/14 06:09:48;;;;;;;;;6.00;6.00;;;;;;;;4997355;28;45307;-61
2023/04/14 06:12:14;;;;;;;;;10.67;8.00;;;;;;;;4994995;28;45411;-62
2023/04/14 06:14:39;;;;;;;;;8.33;6.00;;;;;;;;5001118;28;45456;-62
2023/04/14 06:17:05;;;;;;;;;6.33;6.33;;;;;;;;5000128;28;45350;-61
2023/04/14 06:19:30;;;;;;;;;7.00;6.00;;;;;;;;5000069;28;45419;-61
2023/04/14 06:21:55;;;;;;;;;8.67;7.67;;;;;;;;4994665;28;45350;-63
2023/04/14 06:24:20;;;;;;;;;8.00;6.67;;;;;;;;4996790;28;45407;-61
2023/04/14 06:26:45;;;;;;;;;10.00;8.00;;;;;;;;4992646;28;45439;-61
2023/04/14 06:29:10;;;;;;;;;9.00;8.67;;;;;;;;4989688;28;45461;-62
2023/04/14 06:31:36;;;;;;;;;7.00;5.00;;;;;;;;5000880;28;45381;-62
2023/04/14 06:34:01;;;;;;;;;7.00;5.33;;;;;;;;4988399;28;45318;-58
2023/04/14 06:36:26;;;;;;;;;4.00;4.00;;;;;;;;4993786;28;46386;-58
2023/04/14 06:38:51;;;;;;;;;6.00;6.00;;;;;;;;4984413;28;45246;-58
2023/04/14 06:41:17;;;;;;;;;6.67;6.67;;;;;;;;4997682;28;45282;-58
2023/04/14 06:43:42;;;;;;;;;7.00;5.67;;;;;;;;4984681;28;45519;-58
2023/04/14 06:46:07;;;;;;;;;6.00;6.00;;;;;;;;4992597;28;46300;-59
2023/04/14 06:48:32;;;;;;;;;8.00;8.00;;;;;;;;4976469;28;45221;-58
2023/04/14 06:50:57;;;;;;;;;4.67;4.33;;;;;;;;4980859;28;45347;-58
2023/04/14 06:53:23;;;;;;;;;10.67;9.00;;;;;;;;5003262;28;45391;-58
2023/04/14 06:55:50;;;;;;;;;9.00;9.00;;;;;;;;4986279;28;46304;-60
2023/04/14 06:58:15;;;;;;;;;8.00;6.33;;;;;;;;4977947;28;45398;-60
2023/04/14 07:00:40;;;;;;;;;9.00;8.00;;;;;;;;4985444;28;45670;-59
2023/04/14 07:03:05;;;;;;;;;8.00;8.00;;;;;;;;4989322;28;45490;-59
2023/04/14 07:05:30;;;;;;;;;9.67;7.00;;;;;;;;4997709;28;45408;-60
2023/04/14 07:07:55;;;;;;;;;6.00;6.00;;;;;;;;4996824;28;45500;-60
2023/04/14 07:10:21;;;;;;;;;8.67;8.67;;;;;;;;4998216;28;45423;-60
2023/04/14 07:12:46;;;;;;;;;10.67;9.00;;;;;;;;4991393;28;45346;-60
2023/04/14 07:15:13;;;;;;;;;10.33;9.00;;;;;;;;4994309;28;46305;-60
2023/04/14 07:17:38;;;;;;;;;10.00;9.00;;;;;;;;4986694;28;45440;-60
2023/04/14 07:20:04;;;;;;;;;13.00;10.00;;;;;;;;4999443;28;45437;-60
2023/04/14 07:22:30;;;;;;;;;13.00;11.67;;;;;;;;4996959;28;45366;-59
2023/04/14 07:24:55;;;;;;;;;9.33;9.33;;;;;;;;4994665;28;45988;-60
2023/04/14 07:27:20;;;;;;;;;9.00;9.00;;;;;;;;4999070;28;45391;-60
2023/04/14 07:29:45;;;;;;;;;11.67;10.33;;;;;;;;4998693;28;45603;-60
2023/04/14 07:32:12;;;;;;;;;12.67;11.33;;;;;;;;4994224;28;45460;-60
2023/04/14 07:34:38;;;;;;;;;10.00;9.00;;;;;;;;4975950;28;46267;-60
2023/04/14 07:37:03;;;;;;;;;13.00;13.00;;;;;;;;4992998;28;45745;-60
2023/04/14 07:39:28;;;;;;;;;11.33;11.33;;;;;;;;4995015;28;45717;-59
2023/04/14 07:41:56;;;;;;;;;13.33;12.00;;;;;;;;4995877;28;45503;-60
2023/04/14 07:44:21;;;;;;;;;12.67;11.33;;;;;;;;4974119;28;46137;-60
2023/04/14 07:46:46;;;;;;;;;13.00;10.67;;;;;;;;4998074;28;45475;-59
2023/04/14 07:49:12;;;;;;;;;15.33;13.33;;;;;;;;4989379;28;45999;-59
2023/04/14 07:51:37;;;;;;;;;12.33;10.67;;;;;;;;4989199;28;45350;-59
2023/04/14 07:54:04;;;;;;;;;15.67;11.00;;;;;;;;4993703;28;45568;-60
2023/04/14 07:56:29;;;;;;;;;15.33;15.33;;;;;;;;4989059;28;45495;-60
2023/04/14 07:58:54;;;;;;;;;11.67;10.00;;;;;;;;4991503;28;45441;-59
2023/04/14 08:01:19;;;;;;;;;11.00;11.00;;;;;;;;4993755;28;45381;-59
2023/04/14 08:03:45;;;;;;;;;15.00;13.33;;;;;;;;4998987;28;45978;-60
2023/04/14 08:06:10;;;;;;;;;10.00;10.00;;;;;;;;4996544;28;45357;-59
2023/04/14 08:08:36;;;;;;;;;10.67;9.67;;;;;;;;4987370;28;45274;-60
2023/04/14 08:11:01;;;;;;;;;15.33;11.67;;;;;;;;4985875;28;45834;-60
2023/04/14 08:13:26;;;;;;;;;11.00;11.00;;;;;;;;4985233;28;47104;-59
2023/04/14 08:15:51;;;;;;;;;8.67;8.67;;;;;;;;4999277;28;45405;-60
2023/04/14 08:18:17;;;;;;;;;9.67;9.67;;;;;;;;4998466;28;45633;-60
2023/04/14 08:20:42;;;;;;;;;11.00;9.67;;;;;;;;4996234;28;45655;-60
2023/04/14 08:23:07;;;;;;;;;9.67;9.67;;;;;;;;4991550;28;47224;-60
2023/04/14 08:25:32;;;;;;;;;8.00;7.00;;;;;;;;4998745;28;45219;-59
2023/04/14 08:27:57;;;;;;;;;10.33;10.33;;;;;;;;4995138;28;45409;-59
2023/04/14 08:30:23;;;;;;;;;14.00;11.67;;;;;;;;4990503;28;45433;-60
2023/04/14 08:32:48;;;;;;;;;9.00;9.00;;;;;;;;4998479;28;45174;-60
2023/04/14 08:35:13;;;;;;;;;8.00;7.67;;;;;;;;4998349;28;45314;-60
2023/04/14 08:37:38;;;;;;;;;8.00;8.00;;;;;;;;4995337;28;45378;-60
2023/04/14 08:40:07;;;;;;;;;9.33;9.33;;;;;;;;4994109;28;45509;-59
2023/04/14 08:42:33;;;;;;;;;6.33;5.33;;;;;;;;4998444;28;46418;-60
2023/04/14 08:44:58;;;;;;;;;7.00;5.67;;;;;;;;4998526;28;45384;-60
2023/04/14 08:47:26;;;;;;;;;6.00;6.00;;;;;;;;4988690;28;45564;-59
2023/04/14 08:49:55;;;;;;;;;6.00;6.00;;;;;;;;4991023;28;45525;-60
2023/04/14 08:52:22;;;;;;;;;5.33;5.33;;;;;;;;4997581;28;47305;-60
2023/04/14 08:54:48;;;;;;;;;4.33;4.33;;;;;;;;4996252;28;45519;-59
2023/04/14 08:57:17;;;;;;;;;6.00;6.00;;;;;;;;4991335;28;45691;-60
2023/04/14 08:59:43;;;;;;;;;6.00;6.00;;;;;;;;4998048;28;45471;-59
2023/04/14 09:02:09;;;;;;;;;4.00;4.00;;;;;;;;4995508;28;46100;-60
2023/04/14 09:04:36;;;;;;;;;4.33;4.33;;;;;;;;4995777;28;45310;-59
2023/04/14 09:07:01;;;;;;;;;4.67;4.67;;;;;;;;4995170;28;45380;-60
2023/04/14 09:09:27;;;;;;;;;4.00;4.00;;;;;;;;4988691;28;45636;-60
2023/04/14 09:11:53;;;;;;;;;4.00;4.00;;;;;;;;4983722;28;45318;-60
2023/04/14 09:14:19;;;;;;;;;4.33;4.00;;;;;;;;4987235;28;45522;-59
2023/04/14 09:16:47;;;;;;;;;6.67;5.00;;;;;;;;4993603;28;45607;-60
2023/04/14 09:19:13;;;;;;;;;6.00;5.00;;;;;;;;4986275;28;45465;-60
2023/04/14 09:21:39;;;;;;;;;5.00;5.00;;;;;;;;4986427;28;45996;-60
2023/04/14 09:24:05;;;;;;;;;3.67;3.67;;;;;;;;4989404;28;45434;-60
2023/04/14 09:26:30;;;;;;;;;4.00;4.00;;;;;;;;4995577;28;45703;-59
2023/04/14 09:28:55;;;;;;;;;7.00;7.00;;;;;;;;4996292;28;45666;-60
2023/04/14 09:31:20;;;;;;;;;6.00;4.00;;;;;;;;4994722;28;45365;-60
2023/04/14 09:33:49;;;;;;;;;7.67;7.00;;;;;;;;4996334;28;45417;-60
2023/04/14 09:36:25;;;;;;;;;5.00;5.00;;;;;;;;4988949;28;45401;-60
2023/04/14 09:38:51;;;;;;;;;8.67;5.00;;;;;;;;4991029;28;45596;-60
2023/04/14 09:41:17;;;;;;;;;4.33;4.33;;;;;;;;4995790;28;46229;-60
2023/04/14 09:43:42;;;;;;;;;6.00;4.67;;;;;;;;4992607;28;45550;-60
2023/04/14 09:46:08;;;;;;;;;7.67;4.67;;;;;;;;4993547;28;45410;-59
2023/04/14 09:48:36;;;;;;;;;5.00;4.00;;;;;;;;4991543;28;45607;-60
2023/04/14 09:51:04;;;;;;;;;7.33;5.67;;;;;;;;4997072;28;46306;-60
2023/04/14 09:53:30;;;;;;;;;8.00;4.33;;;;;;;;4991051;28;45898;-59
2023/04/14 09:55:56;;;;;;;;;4.00;4.00;;;;;;;;4997123;28;45496;-60
2023/04/14 09:58:22;;;;;;;;;5.33;4.00;;;;;;;;4993622;28;45325;-60
2023/04/14 10:00:48;;;;;;;;;5.00;3.33;;;;;;;;4993114;28;45374;-60
2023/04/14 10:03:13;;;;;;;;;2.67;2.67;;;;;;;;4989872;28;45499;-60
2023/04/14 10:05:44;;;;;;;;;4.33;3.00;;;;;;;;4997238;28;45231;-59
2023/04/14 10:08:09;;;;;;;;;4.00;4.00;;;;;;;;4987960;28;45457;-59
2023/04/14 10:10:35;;;;;;;;;5.67;3.33;;;;;;;;4988757;28;46760;-59
2023/04/14 10:13:01;;;;;;;;;5.00;4.67;;;;;;;;4993208;28;45299;-60
2023/04/14 10:15:27;;;;;;;;;3.00;3.00;;;;;;;;4980603;28;45580;-60
2023/04/14 10:17:52;;;;;;;;;5.00;3.00;;;;;;;;5000364;28;45318;-60
2023/04/14 10:20:17;;;;;;;;;3.00;3.00;;;;;;;;4995878;28;45564;-59
2023/04/14 10:22:43;;;;;;;;;3.33;3.33;;;;;;;;4996469;28;45385;-60
2023/04/14 10:25:08;;;;;;;;;3.00;2.00;;;;;;;;4996301;28;45318;-59
2023/04/14 10:27:34;;;;;;;;;4.33;3.33;;;;;;;;4995235;28;45381;-60
2023/04/14 10:30:00;;;;;;;;;1.33;1.33;;;;;;;;4987624;28;46230;-60
2023/04/14 10:32:27;;;;;;;;;6.67;3.00;;;;;;;;4988812;28;45732;-60
2023/04/14 10:34:56;;;;;;;;;3.67;3.00;;;;;;;;4989609;28;45534;-60
2023/04/14 10:37:22;;;;;;;;;3.00;3.00;;;;;;;;4993273;28;45524;-60
2023/04/14 10:39:56;;;;;;;;;4.33;3.00;;;;;;;;4997362;28;46559;-60
2023/04/14 10:42:22;;;;;;;;;3.67;3.67;;;;;;;;4992966;28;45449;-60
2023/04/14 10:45:00;;;;;;;;;5.67;3.00;;;;;;;;4995482;28;45516;-60
2023/04/14 10:47:26;;;;;;;;;4.00;3.00;;;;;;;;4998315;28;45512;-60
2023/04/14 10:49:55;;;;;;;;;2.00;2.00;;;;;;;;4989382;28;46404;-60
2023/04/14 10:52:21;;;;;;;;;6.00;3.00;;;;;;;;4996487;28;45500;-60
2023/04/14 10:54:47;;;;;;;;;2.67;2.00;;;;;;;;4999714;28;45416;-60
2023/04/14 10:57:14;;;;;;;;;7.67;2.00;;;;;;;;4993088;28;45899;-60
2023/04/14 10:59:44;;;;;;;;;6.00;3.00;;;;;;;;4995264;28;46123;-57
2023/04/14 11:02:28;;;;;;;;;4.00;2.67;;;;;;;;4989577;28;45423;-55
2023/04/14 11:05:13;;;;;;;;;3.00;2.00;;;;;;;;4990626;28;45774;-59
2023/04/14 11:07:44;;;;;;;;;5.67;2.33;;;;;;;;4991987;28;45417;-59
2023/04/14 11:10:16;;;;;;;;;5.00;3.67;;;;;;;;4988710;28;46424;-63
2023/04/14 11:12:42;;;;;;;;;2.33;2.00;;;;;;;;4991279;28;45456;-63
2023/04/14 11:15:07;;;;;;;;;8.00;5.00;;;;;;;;4991092;28;46865;-61
2023/04/14 11:17:36;;;;;;;;;4.67;4.00;;;;;;;;4997125;28;45552;-62
2023/04/14 11:20:12;;;;;;;;;5.67;2.00;;;;;;;;4998195;28;46132;-62
2023/04/14 11:22:40;;;;;;;;;4.67;3.67;;;;;;;;4976984;28;45528;-60
2023/04/14 11:25:06;;;;;;;;;4.33;3.00;;;;;;;;4998446;28;45458;-57
2023/04/14 11:27:31;;;;;;;;;4.67;2.33;;;;;;;;4975390;28;45421;-57
2023/04/14 11:29:58;;;;;;;;;2.67;2.67;;;;;;;;4996458;28;45534;-58
2023/04/14 11:32:23;;;;;;;;;2.00;2.00;;;;;;;;4995077;28;46031;-64
2023/04/14 11:34:48;;;;;;;;;4.33;2.00;;;;;;;;4990178;28;45523;-54
2023/04/14 11:37:14;;;;;;;;;4.67;3.67;;;;;;;;4996852;28;45369;-63
2023/04/14 11:39:39;;;;;;;;;3.00;3.00;;;;;;;;4998041;28;45574;-59
2023/04/14 11:42:04;;;;;;;;;3.00;1.00;;;;;;;;4995993;28;45455;-61
2023/04/14 11:44:30;;;;;;;;;2.00;2.00;;;;;;;;4995029;28;45506;-57
2023/04/14 11:46:55;;;;;;;;;3.00;3.00;;;;;;;;4991218;28;45374;-60
2023/04/14 11:49:31;;;;;;;;;2.00;1.00;;;;;;;;4994529;28;45544;-63
2023/04/14 11:52:02;;;;;;;;;2.67;2.00;;;;;;;;4991235;28;45404;-61
2023/04/14 11:54:38;;;;;;;;;2.67;2.00;;;;;;;;4995678;28;45364;-61
2023/04/14 11:57:11;;;;;;;;;4.00;2.33;;;;;;;;4981156;28;45600;-61
2023/04/14 11:59:42;;;;;;;;;2.00;2.00;;;;;;;;4997011;28;46260;-62
2023/04/14 12:02:14;;;;;;;;;1.00;1.00;;;;;;;;4971962;28;45457;-64
2023/04/14 12:04:39;;;;;;;;;4.67;1.67;;;;;;;;4998146;28;45564;-60
2023/04/14 12:07:08;;;;;;;;;6.33;1.33;;;;;;;;4985481;28;45500;-68
2023/04/14 12:09:33;;;;;;;;;5.67;2.67;;;;;;;;4978220;28;47141;-68
2023/04/14 12:11:59;;;;;;;;;1.00;1.00;;;;;;;;5000869;28;45497;-68
2023/04/14 12:14:24;;;;;;;;;3.33;2.00;;;;;;;;4995025;28;45420;-68
2023/04/14 12:16:50;;;;;;;;;4.00;2.00;;;;;;;;4998109;28;45564;-68
2023/04/14 12:19:15;;;;;;;;;3.67;3.00;;;;;;;;4996316;28;46934;-67
2023/04/14 12:21:40;;;;;;;;;4.33;1.67;;;;;;;;4989196;28;45517;-68
2023/04/14 12:24:05;;;;;;;;;1.67;1.00;;;;;;;;4989924;28;45414;-67
2023/04/14 12:26:31;;;;;;;;;2.00;2.00;;;;;;;;4971571;28;45683;-67
2023/04/14 12:28:57;;;;;;;;;7.00;2.00;;;;;;;;4990990;28;46242;-67
2023/04/14 12:31:25;;;;;;;;;3.33;1.00;;;;;;;;4986460;28;45535;-67
2023/04/14 12:33:51;;;;;;;;;1.00;1.00;;;;;;;;4992170;28;45528;-67
2023/04/14 12:36:16;;;;;;;;;2.00;1.00;;;;;;;;4996457;28;45460;-67
2023/04/14 12:38:46;;;;;;;;;2.00;2.00;;;;;;;;4991014;28;45628;-66
2023/04/14 12:41:20;;;;;;;;;2.00;2.00;;;;;;;;4995212;28;45427;-67
2023/04/14 12:43:45;;;;;;;;;2.00;0.33;;;;;;;;4996966;28;45612;-67
2023/04/14 12:46:21;;;;;;;;;2.00;2.00;;;;;;;;4996189;28;45824;-67
2023/04/14 12:48:47;;;;;;;;;1.00;1.00;;;;;;;;4992414;28;47189;-68
2023/04/14 12:51:13;;;;;;;;;2.33;2.33;;;;;;;;4996684;28;45328;-67
2023/04/14 12:53:40;;;;;;;;;1.00;1.00;;;;;;;;4993404;28;45515;-68
2023/04/14 12:56:08;;;;;;;;;1.67;1.67;;;;;;;;4971516;28;45382;-68
2023/04/14 12:58:36;;;;;;;;;3.00;2.00;;;;;;;;4996964;28;47036;-68
2023/04/14 13:01:02;;;;;;;;;4.00;1.00;;;;;;;;4992558;28;45630;-67
2023/04/14 13:03:44;;;;;;;;;1.00;1.00;;;;;;;;4994506;28;45485;-67
2023/04/14 13:06:10;;;;;;;;;2.00;2.00;;;;;;;;4988170;28;45644;-67
2023/04/14 13:08:35;;;;;;;;;2.00;1.00;;;;;;;;4991928;28;45464;-66
2023/04/14 13:11:00;;;;;;;;;1.00;1.00;;;;;;;;4994001;28;45538;-66
2023/04/14 13:13:26;;;;;;;;;0.67;0.67;;;;;;;;4975591;28;45897;-66
2023/04/14 13:15:51;;;;;;;;;1.67;1.67;;;;;;;;4988700;28;45532;-66
2023/04/14 13:18:17;;;;;;;;;3.33;2.00;;;;;;;;4966519;28;46134;-66
2023/04/14 13:20:42;;;;;;;;;2.00;2.00;;;;;;;;4986796;28;45449;-66
2023/04/14 13:23:07;;;;;;;;;3.67;3.67;;;;;;;;4993513;28;45401;-66
2023/04/14 13:25:35;;;;;;;;;2.00;2.00;;;;;;;;4996182;28;45811;-66
2023/04/14 13:28:00;;;;;;;;;4.00;1.00;;;;;;;;4992460;28;45345;-67
2023/04/14 13:30:25;;;;;;;;;2.67;2.00;;;;;;;;4989514;28;45436;-66
2023/04/14 13:32:51;;;;;;;;;4.00;1.00;;;;;;;;4989706;28;45751;-65
2023/04/14 13:35:16;;;;;;;;;2.00;2.00;;;;;;;;4996376;28;45433;-66
2023/04/14 13:37:41;;;;;;;;;4.00;2.00;;;;;;;;4987853;28;45427;-66
2023/04/14 13:40:08;;;;;;;;;2.00;2.00;;;;;;;;4994953;28;45589;-66
2023/04/14 13:42:33;;;;;;;;;2.67;1.00;;;;;;;;4987150;28;45524;-64
2023/04/14 13:44:58;;;;;;;;;1.00;1.00;;;;;;;;4985220;28;45512;-67
2023/04/14 13:47:24;;;;;;;;;3.00;1.67;;;;;;;;4989941;28;46273;-66
2023/04/14 13:49:49;;;;;;;;;1.00;1.00;;;;;;;;4972806;28;45688;-64
2023/04/14 13:52:14;;;;;;;;;2.00;1.00;;;;;;;;5000013;28;45539;-64
2023/04/14 13:54:40;;;;;;;;;3.00;2.00;;;;;;;;4995631;28;45508;-65
2023/04/14 13:57:05;;;;;;;;;1.00;1.00;;;;;;;;4996131;28;46751;-65
2023/04/14 13:59:30;;;;;;;;;1.00;1.00;;;;;;;;4991319;28;45417;-66
2023/04/14 14:01:55;;;;;;;;;3.33;2.00;;;;;;;;4989826;28;45452;-66
2023/04/14 14:04:21;;;;;;;;;1.00;1.00;;;;;;;;4992823;28;45600;-65
2023/04/14 14:06:46;;;;;;;;;0.00;0.00;;;;;;;;4996053;28;46892;-66
2023/04/14 14:09:12;;;;;;;;;1.33;1.33;;;;;;;;4993692;28;45265;-66
2023/04/14 14:11:40;;;;;;;;;3.00;1.00;;;;;;;;4997275;28;45367;-66
2023/04/14 14:14:06;;;;;;;;;1.00;1.00;;;;;;;;4997970;28;45456;-67
2023/04/14 14:16:32;;;;;;;;;2.33;2.00;;;;;;;;4999468;28;46050;-66
2023/04/14 14:18:58;;;;;;;;;2.33;1.00;;;;;;;;4990363;28;45546;-66
2023/04/14 14:21:24;;;;;;;;;2.33;1.00;;;;;;;;4995069;28;45529;-66
2023/04/14 14:23:49;;;;;;;;;0.33;0.33;;;;;;;;5000169;28;45685;-66
2023/04/14 14:26:14;;;;;;;;;0.00;0.00;;;;;;;;4990458;28;46050;-66
2023/04/14 14:28:39;;;;;;;;;1.00;1.00;;;;;;;;4992036;28;47182;-66
2023/04/14 14:31:05;;;;;;;;;1.00;1.00;;;;;;;;4991014;28;45512;-66
2023/04/14 14:33:30;;;;;;;;;2.33;1.00;;;;;;;;4988355;28;45405;-66
2023/04/14 14:35:55;;;;;;;;;0.00;0.00;;;;;;;;4997013;28;46721;-65
2023/04/14 14:38:20;;;;;;;;;0.67;0.00;;;;;;;;4997066;28;45718;-68
2023/04/14 14:40:46;;;;;;;;;1.00;1.00;;;;;;;;4997645;28;45254;-67
2023/04/14 14:43:11;;;;;;;;;1.00;1.00;;;;;;;;4998635;28;45851;-67
2023/04/14 14:45:36;;;;;;;;;1.00;1.00;;;;;;;;4993841;28;45843;-67
2023/04/14 14:48:01;;;;;;;;;3.00;2.00;;;;;;;;4983799;28;45707;-67
2023/04/14 14:50:27;;;;;;;;;1.00;1.00;;;;;;;;4986667;28;45352;-67
2023/04/14 14:52:54;;;;;;;;;0.67;0.67;;;;;;;;4992314;28;45546;-67
2023/04/14 14:55:20;;;;;;;;;1.00;1.00;;;;;;;;4993659;28;46369;-67
2023/04/14 14:57:45;;;;;;;;;2.00;1.00;;;;;;;;4997354;28;45421;-67
2023/04/14 15:00:10;;;;;;;;;0.00;0.00;;;;;;;;4991747;28;45662;-67
2023/04/14 15:02:35;;;;;;;;;1.00;1.00;;;;;;;;4989025;28;45457;-68
2023/04/14 15:05:01;;;;;;;;;2.00;2.00;;;;;;;;4984688;28;45790;-68
2023/04/14 15:07:26;;;;;;;;;2.33;1.00;;;;;;;;4991596;28;45635;-68
2023/04/14 15:09:52;;;;;;;;;3.67;1.00;;;;;;;;4991643;28;45616;-67
2023/04/14 15:12:18;;;;;;;;;1.00;1.00;;;;;;;;4990911;28;45744;-67
2023/04/14 15:14:43;;;;;;;;;2.00;1.33;;;;;;;;4975309;28;46503;-68
2023/04/14 15:17:08;;;;;;;;;3.33;1.00;;;;;;;;4988840;28;45542;-67
2023/04/14 15:19:34;;;;;;;;;2.00;1.00;;;;;;;;4994365;28;45465;-68
2023/04/14 15:21:59;;;;;;;;;1.33;1.33;;;;;;;;4977395;28;45472;-68
2023/04/14 15:24:25;;;;;;;;;1.00;1.00;;;;;;;;4974023;28;46179;-68
2023/04/14 15:26:50;;;;;;;;;3.00;2.00;;;;;;;;4997406;28;45362;-67
2023/04/14 15:29:15;;;;;;;;;1.67;1.00;;;;;;;;4989436;28;45505;-68
2023/04/14 15:31:40;;;;;;;;;1.00;1.00;;;;;;;;4996465;28;45441;-67
2023/04/14 15:34:06;;;;;;;;;3.00;1.00;;;;;;;;4991624;28;46775;-68
2023/04/14 15:36:31;;;;;;;;;2.00;2.00;;;;;;;;4993219;28;45426;-68
2023/04/14 15:38:57;;;;;;;;;1.00;1.00;;;;;;;;4989379;28;45443;-67
2023/04/14 15:41:22;;;;;;;;;2.33;2.33;;;;;;;;4995163;28;45281;-68
2023/04/14 15:43:50;;;;;;;;;3.00;3.00;;;;;;;;4979256;28;45496;-67
2023/04/14 15:46:15;;;;;;;;;3.00;3.00;;;;;;;;4993710;28;45338;-68
2023/04/14 15:48:41;;;;;;;;;4.00;3.00;;;;;;;;4995271;28;46503;-68
2023/04/14 15:51:06;;;;;;;;;2.00;2.00;;;;;;;;4972901;28;45499;-68
2023/04/14 15:53:31;;;;;;;;;4.00;2.00;;;;;;;;4996457;28;45557;-67
2023/04/14 15:55:56;;;;;;;;;3.33;3.33;;;;;;;;4991933;28;45570;-67
2023/04/14 15:58:22;;;;;;;;;3.00;3.00;;;;;;;;4998751;28;45769;-67
2023/04/14 16:00:48;;;;;;;;;4.33;3.00;;;;;;;;4977506;28;45700;-67
2023/04/14 16:03:13;;;;;;;;;2.67;2.00;;;;;;;;4993559;28;46342;-67
2023/04/14 16:05:39;;;;;;;;;3.00;3.00;;;;;;;;4990031;28;45578;-67
2023/04/14 16:08:04;;;;;;;;;3.00;3.00;;;;;;;;4998807;28;45500;-67
2023/04/14 16:10:30;;;;;;;;;4.00;2.00;;;;;;;;4987270;28;45774;-68
2023/04/14 16:12:55;;;;;;;;;3.00;3.00;;;;;;;;4989282;28;47035;-67
2023/04/14 16:15:21;;;;;;;;;2.67;2.67;;;;;;;;4990506;28;46678;-67
2023/04/14 16:17:47;;;;;;;;;4.00;4.00;;;;;;;;4996249;28;46441;-67
2023/04/14 16:20:12;;;;;;;;;3.67;3.33;;;;;;;;4988903;28;45495;-67
2023/04/14 16:22:37;;;;;;;;;4.00;3.00;;;;;;;;4977914;28;48077;-67
2023/04/14 16:25:03;;;;;;;;;5.00;3.00;;;;;;;;4994892;28;45380;-67
2023/04/14 16:27:28;;;;;;;;;2.33;2.33;;;;;;;;4998163;28;45451;-66
2023/04/14 16:29:54;;;;;;;;;3.00;3.00;;;;;;;;4993452;28;45569;-67
2023/04/14 16:32:19;;;;;;;;;3.00;1.67;;;;;;;;4996751;28;45437;-67
2023/04/14 16:34:44;;;;;;;;;3.00;3.00;;;;;;;;4999177;28;45512;-67
2023/04/14 16:37:09;;;;;;;;;2.67;2.67;;;;;;;;4991505;28;45367;-67
2023/04/14 16:39:35;;;;;;;;;3.00;3.00;;;;;;;;4982982;28;45684;-68
2023/04/14 16:42:03;;;;;;;;;2.00;2.00;;;;;;;;4989119;28;46841;-68
2023/04/14 16:44:28;;;;;;;;;2.67;2.67;;;;;;;;4985871;28;45447;-68
2023/04/14 16:46:54;;;;;;;;;2.67;2.67;;;;;;;;4987217;28;47064;-67
2023/04/14 16:49:19;;;;;;;;;2.67;2.67;;;;;;;;4987161;28;45423;-66
2023/04/14 16:51:45;;;;;;;;;4.00;3.00;;;;;;;;4995207;28;47047;-65
2023/04/14 16:54:10;;;;;;;;;2.33;2.33;;;;;;;;4995179;28;45559;-65
2023/04/14 16:56:35;;;;;;;;;2.33;2.33;;;;;;;;4994818;28;45319;-64
2023/04/14 16:59:00;;;;;;;;;3.67;2.00;;;;;;;;4992695;28;45692;-65
2023/04/14 17:01:26;;;;;;;;;6.00;3.00;;;;;;;;4994473;28;46094;-64
2023/04/14 17:03:52;;;;;;;;;1.33;1.33;;;;;;;;4987982;28;45813;-64
2023/04/14 17:06:17;;;;;;;;;3.67;2.33;;;;;;;;4984963;28;45484;-65
2023/04/14 17:08:42;;;;;;;;;4.33;2.00;;;;;;;;4988246;28;45280;-64
2023/04/14 17:11:07;;;;;;;;;2.00;2.00;;;;;;;;4997163;28;46028;-65
2023/04/14 17:13:33;;;;;;;;;2.67;2.67;;;;;;;;4995034;28;45436;-64
2023/04/14 17:15:59;;;;;;;;;6.00;5.00;;;;;;;;4990667;28;45436;-65
2023/04/14 17:18:24;;;;;;;;;4.00;2.67;;;;;;;;4994678;28;45654;-65
2023/04/14 17:20:49;;;;;;;;;6.33;3.67;;;;;;;;4979236;28;47530;-65
2023/04/14 17:23:15;;;;;;;;;1.33;0.67;;;;;;;;4992098;28;45384;-64
2023/04/14 17:25:41;;;;;;;;;3.33;3.33;;;;;;;;4987350;28;45326;-66
2023/04/14 17:28:06;;;;;;;;;3.00;3.00;;;;;;;;4992512;28;45616;-65
2023/04/14 17:30:35;;;;;;;;;3.00;3.00;;;;;;;;4984311;28;45508;-63
2023/04/14 17:33:02;;;;;;;;;3.67;3.67;;;;;;;;4984030;28;45576;-65
2023/04/14 17:35:27;;;;;;;;;3.00;3.00;;;;;;;;4984081;28;46693;-66
2023/04/14 17:37:54;;;;;;;;;4.33;2.00;;;;;;;;4988254;28;45961;-65
2023/04/14 17:40:19;;;;;;;;;4.33;2.67;;;;;;;;4985874;28;45366;-65
2023/04/14 17:42:44;;;;;;;;;5.00;4.33;;;;;;;;4992027;28;45231;-66
2023/04/14 17:45:10;;;;;;;;;3.67;3.67;;;;;;;;4990183;28;45617;-60
2023/04/14 17:47:39;;;;;;;;;4.33;4.33;;;;;;;;4990330;28;45476;-66
2023/04/14 17:50:05;;;;;;;;;7.00;7.00;;;;;;;;4978466;28;46223;-66
2023/04/14 17:52:31;;;;;;;;;5.00;5.00;;;;;;;;4984131;28;45432;-67
2023/04/14 17:54:57;;;;;;;;;7.33;6.00;;;;;;;;4971324;28;45923;-67
2023/04/14 17:57:23;;;;;;;;;9.00;5.00;;;;;;;;4994165;28;45471;-67
2023/04/14 17:59:49;;;;;;;;;8.00;7.00;;;;;;;;4972491;28;48131;-68
2023/04/14 18:02:15;;;;;;;;;10.00;7.00;;;;;;;;4965422;28;46007;-68
2023/04/14 18:04:40;;;;;;;;;7.67;5.00;;;;;;;;4976213;28;45405;-69
2023/04/14 18:07:05;;;;;;;;;6.00;6.00;;;;;;;;4972532;28;45747;-68
2023/04/14 18:09:31;;;;;;;;;6.00;6.00;;;;;;;;4992922;28;45451;-68
2023/04/14 18:11:56;;;;;;;;;6.00;6.00;;;;;;;;4992667;28;45598;-69
2023/04/14 18:14:21;;;;;;;;;6.00;6.00;;;;;;;;4970220;28;45389;-69
2023/04/14 18:16:47;;;;;;;;;5.67;5.33;;;;;;;;4991369;28;45515;-69
2023/04/14 18:19:12;;;;;;;;;6.67;6.33;;;;;;;;4988482;28;45508;-69
2023/04/14 18:21:37;;;;;;;;;8.67;8.67;;;;;;;;4992467;28;45353;-70
2023/04/14 18:24:03;;;;;;;;;8.33;7.00;;;;;;;;4972361;28;45410;-68
2023/04/14 18:26:28;;;;;;;;;8.00;8.00;;;;;;;;4972909;28;45509;-69
2023/04/14 18:28:55;;;;;;;;;9.33;8.67;;;;;;;;4974497;28;48110;-70
2023/04/14 18:31:20;;;;;;;;;10.33;9.00;;;;;;;;4969935;28;45929;-80
2023/04/14 18:33:45;;;;;;;;;8.00;6.33;;;;;;;;4983707;28;45426;-78
2023/04/14 18:36:10;;;;;;;;;7.67;7.67;;;;;;;;4981752;28;45676;-76
2023/04/14 18:38:36;;;;;;;;;8.00;8.00;;;;;;;;5001973;28;46052;-75
2023/04/14 18:41:04;;;;;;;;;7.00;7.00;;;;;;;;4988021;28;45308;-76
2023/04/14 18:43:30;;;;;;;;;11.67;10.00;;;;;;;;4971841;28;45511;-76
2023/04/14 18:45:55;;;;;;;;;11.33;10.00;;;;;;;;4992914;28;45631;-76
2023/04/14 18:48:20;;;;;;;;;13.00;10.33;;;;;;;;4983181;28;46834;-76
2023/04/14 18:50:46;;;;;;;;;11.00;11.00;;;;;;;;4995646;28;45338;-76
2023/04/14 18:53:12;;;;;;;;;11.67;11.00;;;;;;;;4976556;28;45507;-75
2023/04/14 18:55:37;;;;;;;;;11.00;10.33;;;;;;;;4987874;28;45874;-75
2023/04/14 18:58:10;;;;;;;;;15.67;12.33;;;;;;;;4997922;28;46333;-75
2023/04/14 19:00:36;;;;;;;;;15.00;15.00;;;;;;;;4995696;28;48778;-74
2023/04/14 19:03:03;;;;;;;;;13.67;13.67;;;;;;;;4988450;28;46646;-75
2023/04/14 19:05:29;;;;;;;;;12.00;11.00;;;;;;;;4996632;28;45467;-75
2023/04/14 19:07:54;;;;;;;;;10.67;10.00;;;;;;;;4997961;28;47020;-73
2023/04/14 19:10:19;;;;;;;;;13.67;12.67;;;;;;;;4996740;28;45276;-76
2023/04/14 19:12:45;;;;;;;;;13.33;13.33;;;;;;;;4997539;28;45405;-75
2023/04/14 19:15:12;;;;;;;;;13.67;13.67;;;;;;;;4988629;28;45413;-75
2023/04/14 19:17:37;;;;;;;;;14.33;12.33;;;;;;;;4985690;28;46185;-75
2023/04/14 19:20:03;;;;;;;;;11.67;11.67;;;;;;;;4990762;28;45449;-74
2023/04/14 19:22:28;;;;;;;;;13.33;12.00;;;;;;;;4997856;28;45369;-74
2023/04/14 19:24:54;;;;;;;;;11.33;10.67;;;;;;;;4985830;28;45467;-75
2023/04/14 19:27:19;;;;;;;;;14.33;12.00;;;;;;;;4991934;28;46155;-75
2023/04/14 19:29:45;;;;;;;;;14.67;11.67;;;;;;;;4996245;28;45377;-75
2023/04/14 19:32:10;;;;;;;;;14.67;14.33;;;;;;;;4988804;28;45453;-75